sensor_id;sensor_type;location;lat;lon;timestamp;temperature;humidity
25438;DHT22;13364;49.084;9.978;2023-04-09T00:00:43;6.80;91.40
25438;DHT22;13364;49.084;9.978;2023-04-09T00:03:10;6.80;91.70
25438;DHT22;13364;49.084;9.978;2023-04-09T00:05:41;6.80;91.50
25438;DHT22;13364;49.084;9.978;2023-04-09T00:08:08;6.80;91.30
25438;DHT22;13364;49.084;9.978;2023-04-09T00:10:35;6.90;91.00
25438;DHT22;13364;49.084;9.978;2023-04-09T00:13:01;6.90;90.80
25438;DHT22;13364;49.084;9.978;2023-04-09T00:15:29;6.80;90.80
25438;DHT22;13364;49.084;9.978;2023-04-09T00:17:58;6.90;90.80
25438;DHT22;13364;49.084;9.978;2023-04-09T00:20:25;6.90;90.80
25438;DHT22;13364;49.084;9.978;2023-04-09T00:22:52;6.90;90.70
25438;DHT22;13364;49.084;9.978;2023-04-09T00:25:19;6.80;90.70
25438;DHT22;13364;49.084;9.978;2023-04-09T00:27:46;6.90;90.60
25438;DHT22;13364;49.084;9.978;2023-04-09T00:30:13;6.80;90.50
25438;DHT22;13364;49.084;9.978;2023-04-09T00:32:42;6.80;90.50
25438;DHT22;13364;49.084;9.978;2023-04-09T00:35:09;6.80;90.40
25438;DHT22;13364;49.084;9.978;2023-04-09T00:37:36;6.80;90.30
25438;DHT22;13364;49.084;9.978;2023-04-09T00:40:04;6.80;90.20
25438;DHT22;13364;49.084;9.978;2023-04-09T00:42:33;6.80;89.70
25438;DHT22;13364;49.084;9.978;2023-04-09T00:45:00;6.80;89.60
25438;DHT22;13364;49.084;9.978;2023-04-09T00:47:28;6.80;89.70
25438;DHT22;13364;49.084;9.978;2023-04-09T00:49:56;6.70;89.60
25438;DHT22;13364;49.084;9.978;2023-04-09T00:52:24;6.60;89.90
25438;DHT22;13364;49.084;9.978;2023-04-09T00:54:52;6.60;90.00
25438;DHT22;13364;49.084;9.978;2023-04-09T00:57:19;6.60;90.00
25438;DHT22;13364;49.084;9.978;2023-04-09T00:59:46;6.50;90.10
25438;DHT22;13364;49.084;9.978;2023-04-09T01:02:13;6.50;90.30
25438;DHT22;13364;49.084;9.978;2023-04-09T01:04:41;6.60;90.10
25438;DHT22;13364;49.084;9.978;2023-04-09T01:10:04;6.50;90.20
25438;DHT22;13364;49.084;9.978;2023-04-09T01:15:40;6.40;90.70
25438;DHT22;13364;49.084;9.978;2023-04-09T01:18:28;6.40;90.90
25438;DHT22;13364;49.084;9.978;2023-04-09T01:21:01;6.40;90.90
25438;DHT22;13364;49.084;9.978;2023-04-09T01:23:46;6.40;90.90
25438;DHT22;13364;49.084;9.978;2023-04-09T01:29:07;6.50;90.20
25438;DHT22;13364;49.084;9.978;2023-04-09T01:31:36;6.50;90.30
25438;DHT22;13364;49.084;9.978;2023-04-09T01:34:06;6.50;90.40
25438;DHT22;13364;49.084;9.978;2023-04-09T01:36:34;6.40;90.50
25438;DHT22;13364;49.084;9.978;2023-04-09T01:39:04;6.40;90.70
25438;DHT22;13364;49.084;9.978;2023-04-09T01:41:33;6.50;90.50
25438;DHT22;13364;49.084;9.978;2023-04-09T01:44:02;6.50;90.60
25438;DHT22;13364;49.084;9.978;2023-04-09T01:46:31;6.40;90.60
25438;DHT22;13364;49.084;9.978;2023-04-09T01:48:59;6.50;90.60
25438;DHT22;13364;49.084;9.978;2023-04-09T01:51:27;6.50;90.70
25438;DHT22;13364;49.084;9.978;2023-04-09T01:53:56;6.50;90.50
25438;DHT22;13364;49.084;9.978;2023-04-09T01:56:23;6.50;90.40
25438;DHT22;13364;49.084;9.978;2023-04-09T01:58:50;6.50;90.60
25438;DHT22;13364;49.084;9.978;2023-04-09T02:01:32;6.50;90.70
25438;DHT22;13364;49.084;9.978;2023-04-09T02:04:04;6.50;90.50
25438;DHT22;13364;49.084;9.978;2023-04-09T02:09:20;6.50;90.60
25438;DHT22;13364;49.084;9.978;2023-04-09T02:11:56;6.50;90.50
25438;DHT22;13364;49.084;9.978;2023-04-09T02:14:24;6.50;90.70
25438;DHT22;13364;49.084;9.978;2023-04-09T02:16:53;6.50;90.70
25438;DHT22;13364;49.084;9.978;2023-04-09T02:19:20;6.50;90.70
25438;DHT22;13364;49.084;9.978;2023-04-09T02:21:47;6.50;91.10
25438;DHT22;13364;49.084;9.978;2023-04-09T02:24:14;6.50;91.30
25438;DHT22;13364;49.084;9.978;2023-04-09T02:26:41;6.50;91.30
25438;DHT22;13364;49.084;9.978;2023-04-09T02:29:08;6.40;91.40
25438;DHT22;13364;49.084;9.978;2023-04-09T02:31:35;6.40;91.80
25438;DHT22;13364;49.084;9.978;2023-04-09T02:34:02;6.40;91.80
25438;DHT22;13364;49.084;9.978;2023-04-09T02:36:29;6.40;91.80
25438;DHT22;13364;49.084;9.978;2023-04-09T02:38:56;6.50;91.80
25438;DHT22;13364;49.084;9.978;2023-04-09T02:41:23;6.40;92.00
25438;DHT22;13364;49.084;9.978;2023-04-09T02:43:51;6.40;92.10
25438;DHT22;13364;49.084;9.978;2023-04-09T02:46:18;6.40;92.40
25438;DHT22;13364;49.084;9.978;2023-04-09T02:48:46;6.40;92.40
25438;DHT22;13364;49.084;9.978;2023-04-09T02:51:13;6.40;92.40
25438;DHT22;13364;49.084;9.978;2023-04-09T02:53:40;6.40;92.40
25438;DHT22;13364;49.084;9.978;2023-04-09T02:56:07;6.40;92.60
25438;DHT22;13364;49.084;9.978;2023-04-09T02:58:34;6.40;92.50
25438;DHT22;13364;49.084;9.978;2023-04-09T03:01:02;6.40;92.60
25438;DHT22;13364;49.084;9.978;2023-04-09T03:03:29;6.40;92.70
25438;DHT22;13364;49.084;9.978;2023-04-09T03:05:57;6.40;92.90
25438;DHT22;13364;49.084;9.978;2023-04-09T03:08:24;6.40;93.00
25438;DHT22;13364;49.084;9.978;2023-04-09T03:10:51;6.40;93.00
25438;DHT22;13364;49.084;9.978;2023-04-09T03:13:18;6.40;93.10
25438;DHT22;13364;49.084;9.978;2023-04-09T03:15:49;6.40;93.10
25438;DHT22;13364;49.084;9.978;2023-04-09T03:18:17;6.40;93.00
25438;DHT22;13364;49.084;9.978;2023-04-09T03:20:44;6.40;93.00
25438;DHT22;13364;49.084;9.978;2023-04-09T03:23:13;6.40;93.10
25438;DHT22;13364;49.084;9.978;2023-04-09T03:25:45;6.30;93.20
25438;DHT22;13364;49.084;9.978;2023-04-09T03:28:15;6.40;93.20
25438;DHT22;13364;49.084;9.978;2023-04-09T03:30:46;6.40;93.40
25438;DHT22;13364;49.084;9.978;2023-04-09T03:33:14;6.40;93.40
25438;DHT22;13364;49.084;9.978;2023-04-09T03:35:49;6.40;93.30
25438;DHT22;13364;49.084;9.978;2023-04-09T03:38:22;6.40;93.30
25438;DHT22;13364;49.084;9.978;2023-04-09T03:40:50;6.40;93.40
25438;DHT22;13364;49.084;9.978;2023-04-09T03:43:17;6.40;93.30
25438;DHT22;13364;49.084;9.978;2023-04-09T03:45:49;6.40;93.40
25438;DHT22;13364;49.084;9.978;2023-04-09T03:48:24;6.40;93.40
25438;DHT22;13364;49.084;9.978;2023-04-09T03:50:52;6.40;93.40
25438;DHT22;13364;49.084;9.978;2023-04-09T03:53:28;6.40;93.40
25438;DHT22;13364;49.084;9.978;2023-04-09T03:56:00;6.40;93.50
25438;DHT22;13364;49.084;9.978;2023-04-09T03:58:29;6.40;93.40
25438;DHT22;13364;49.084;9.978;2023-04-09T04:00:57;6.40;93.50
25438;DHT22;13364;49.084;9.978;2023-04-09T04:03:38;6.40;93.40
25438;DHT22;13364;49.084;9.978;2023-04-09T04:06:26;6.40;93.40
25438;DHT22;13364;49.084;9.978;2023-04-09T04:09:02;6.40;93.20
25438;DHT22;13364;49.084;9.978;2023-04-09T04:11:42;6.40;93.10
25438;DHT22;13364;49.084;9.978;2023-04-09T04:14:09;6.40;93.10
25438;DHT22;13364;49.084;9.978;2023-04-09T04:16:41;6.40;93.10
25438;DHT22;13364;49.084;9.978;2023-04-09T04:19:09;6.40;92.90
25438;DHT22;13364;49.084;9.978;2023-04-09T04:21:43;6.40;92.80
25438;DHT22;13364;49.084;9.978;2023-04-09T04:24:10;6.30;92.90
25438;DHT22;13364;49.084;9.978;2023-04-09T04:26:40;6.30;92.90
25438;DHT22;13364;49.084;9.978;2023-04-09T04:29:08;6.30;93.20
25438;DHT22;13364;49.084;9.978;2023-04-09T04:31:54;6.30;93.30
25438;DHT22;13364;49.084;9.978;2023-04-09T04:34:24;6.30;93.50
25438;DHT22;13364;49.084;9.978;2023-04-09T04:37:17;6.30;93.10
25438;DHT22;13364;49.084;9.978;2023-04-09T04:39:44;6.30;93.20
25438;DHT22;13364;49.084;9.978;2023-04-09T04:42:14;6.20;93.60
25438;DHT22;13364;49.084;9.978;2023-04-09T04:44:42;6.20;93.70
25438;DHT22;13364;49.084;9.978;2023-04-09T04:47:27;6.20;93.70
25438;DHT22;13364;49.084;9.978;2023-04-09T04:49:57;6.20;93.70
25438;DHT22;13364;49.084;9.978;2023-04-09T04:52:24;6.10;94.00
25438;DHT22;13364;49.084;9.978;2023-04-09T04:54:52;6.10;94.20
25438;DHT22;13364;49.084;9.978;2023-04-09T04:57:22;6.10;94.40
25438;DHT22;13364;49.084;9.978;2023-04-09T04:59:49;6.10;94.30
25438;DHT22;13364;49.084;9.978;2023-04-09T05:02:17;6.10;94.20
25438;DHT22;13364;49.084;9.978;2023-04-09T05:05:04;6.10;94.40
25438;DHT22;13364;49.084;9.978;2023-04-09T05:07:38;6.10;94.40
25438;DHT22;13364;49.084;9.978;2023-04-09T05:10:05;6.20;94.40
25438;DHT22;13364;49.084;9.978;2023-04-09T05:12:37;6.20;94.40
25438;DHT22;13364;49.084;9.978;2023-04-09T05:15:05;6.20;94.40
25438;DHT22;13364;49.084;9.978;2023-04-09T05:17:32;6.20;94.20
25438;DHT22;13364;49.084;9.978;2023-04-09T05:19:59;6.30;94.20
25438;DHT22;13364;49.084;9.978;2023-04-09T05:22:42;6.30;94.00
25438;DHT22;13364;49.084;9.978;2023-04-09T05:25:09;6.30;93.70
25438;DHT22;13364;49.084;9.978;2023-04-09T05:27:39;6.30;93.70
25438;DHT22;13364;49.084;9.978;2023-04-09T05:30:09;6.40;93.40
25438;DHT22;13364;49.084;9.978;2023-04-09T05:32:37;6.40;93.20
25438;DHT22;13364;49.084;9.978;2023-04-09T05:35:05;6.40;93.10
25438;DHT22;13364;49.084;9.978;2023-04-09T05:37:37;6.40;93.00
25438;DHT22;13364;49.084;9.978;2023-04-09T05:40:05;6.40;93.00
25438;DHT22;13364;49.084;9.978;2023-04-09T05:42:33;6.40;92.90
25438;DHT22;13364;49.084;9.978;2023-04-09T05:45:04;6.40;92.80
25438;DHT22;13364;49.084;9.978;2023-04-09T05:47:31;6.40;92.60
25438;DHT22;13364;49.084;9.978;2023-04-09T05:50:10;6.40;92.70
25438;DHT22;13364;49.084;9.978;2023-04-09T05:52:37;6.40;92.70
25438;DHT22;13364;49.084;9.978;2023-04-09T05:55:05;6.30;93.20
25438;DHT22;13364;49.084;9.978;2023-04-09T05:57:42;6.30;93.50
25438;DHT22;13364;49.084;9.978;2023-04-09T06:00:11;6.20;93.70
25438;DHT22;13364;49.084;9.978;2023-04-09T06:02:47;6.10;94.00
25438;DHT22;13364;49.084;9.978;2023-04-09T06:05:14;6.20;94.40
25438;DHT22;13364;49.084;9.978;2023-04-09T06:07:41;6.10;94.40
25438;DHT22;13364;49.084;9.978;2023-04-09T06:10:08;6.10;94.50
25438;DHT22;13364;49.084;9.978;2023-04-09T06:12:35;6.00;94.40
25438;DHT22;13364;49.084;9.978;2023-04-09T06:15:06;6.00;94.40
25438;DHT22;13364;49.084;9.978;2023-04-09T06:17:33;6.00;94.10
25438;DHT22;13364;49.084;9.978;2023-04-09T06:20:00;6.00;94.10
25438;DHT22;13364;49.084;9.978;2023-04-09T06:22:27;6.00;94.20
25438;DHT22;13364;49.084;9.978;2023-04-09T06:24:54;6.00;93.90
25438;DHT22;13364;49.084;9.978;2023-04-09T06:27:21;6.00;93.70
25438;DHT22;13364;49.084;9.978;2023-04-09T06:29:48;6.10;93.60
25438;DHT22;13364;49.084;9.978;2023-04-09T06:32:15;6.10;93.60
25438;DHT22;13364;49.084;9.978;2023-04-09T06:34:42;6.20;93.30
25438;DHT22;13364;49.084;9.978;2023-04-09T06:37:10;6.30;93.30
25438;DHT22;13364;49.084;9.978;2023-04-09T06:39:37;6.30;93.00
25438;DHT22;13364;49.084;9.978;2023-04-09T06:42:08;6.40;92.60
25438;DHT22;13364;49.084;9.978;2023-04-09T06:44:54;6.40;92.30
25438;DHT22;13364;49.084;9.978;2023-04-09T06:47:21;6.40;92.10
25438;DHT22;13364;49.084;9.978;2023-04-09T06:49:48;6.50;92.00
25438;DHT22;13364;49.084;9.978;2023-04-09T06:52:15;6.50;92.20
25438;DHT22;13364;49.084;9.978;2023-04-09T06:54:42;6.50;92.10
25438;DHT22;13364;49.084;9.978;2023-04-09T06:57:12;6.60;91.50
25438;DHT22;13364;49.084;9.978;2023-04-09T06:59:39;6.50;91.10
25438;DHT22;13364;49.084;9.978;2023-04-09T07:02:07;6.50;91.10
25438;DHT22;13364;49.084;9.978;2023-04-09T07:04:35;6.60;91.10
25438;DHT22;13364;49.084;9.978;2023-04-09T07:07:03;6.60;90.70
25438;DHT22;13364;49.084;9.978;2023-04-09T07:09:30;6.70;90.70
25438;DHT22;13364;49.084;9.978;2023-04-09T07:11:58;6.70;90.90
25438;DHT22;13364;49.084;9.978;2023-04-09T07:14:25;6.80;90.70
25438;DHT22;13364;49.084;9.978;2023-04-09T07:16:51;6.90;90.30
25438;DHT22;13364;49.084;9.978;2023-04-09T07:19:18;6.90;90.20
25438;DHT22;13364;49.084;9.978;2023-04-09T07:21:46;7.00;89.50
25438;DHT22;13364;49.084;9.978;2023-04-09T07:24:13;7.10;89.00
25438;DHT22;13364;49.084;9.978;2023-04-09T07:26:39;7.10;88.70
25438;DHT22;13364;49.084;9.978;2023-04-09T07:29:07;7.20;88.10
25438;DHT22;13364;49.084;9.978;2023-04-09T07:31:34;7.30;87.70
25438;DHT22;13364;49.084;9.978;2023-04-09T07:34:01;7.30;87.50
25438;DHT22;13364;49.084;9.978;2023-04-09T07:36:28;7.40;86.60
25438;DHT22;13364;49.084;9.978;2023-04-09T07:38:57;7.40;86.70
25438;DHT22;13364;49.084;9.978;2023-04-09T07:41:24;7.50;86.40
25438;DHT22;13364;49.084;9.978;2023-04-09T07:43:51;7.60;86.30
25438;DHT22;13364;49.084;9.978;2023-04-09T07:46:19;7.70;86.00
25438;DHT22;13364;49.084;9.978;2023-04-09T07:48:47;7.70;86.00
25438;DHT22;13364;49.084;9.978;2023-04-09T07:51:16;7.80;85.30
25438;DHT22;13364;49.084;9.978;2023-04-09T07:53:43;7.90;83.90
25438;DHT22;13364;49.084;9.978;2023-04-09T07:56:10;8.00;83.90
25438;DHT22;13364;49.084;9.978;2023-04-09T07:58:38;8.10;83.10
25438;DHT22;13364;49.084;9.978;2023-04-09T08:01:05;8.20;82.40
25438;DHT22;13364;49.084;9.978;2023-04-09T08:03:32;8.30;82.60
25438;DHT22;13364;49.084;9.978;2023-04-09T08:05:59;8.40;82.60
25438;DHT22;13364;49.084;9.978;2023-04-09T08:08:27;8.60;82.50
25438;DHT22;13364;49.084;9.978;2023-04-09T08:10:54;8.70;81.80
25438;DHT22;13364;49.084;9.978;2023-04-09T08:13:22;8.80;82.00
25438;DHT22;13364;49.084;9.978;2023-04-09T08:15:51;8.90;81.50
25438;DHT22;13364;49.084;9.978;2023-04-09T08:18:18;9.00;79.80
25438;DHT22;13364;49.084;9.978;2023-04-09T08:20:45;9.10;79.60
25438;DHT22;13364;49.084;9.978;2023-04-09T08:23:12;9.30;79.90
25438;DHT22;13364;49.084;9.978;2023-04-09T08:25:39;9.40;78.80
25438;DHT22;13364;49.084;9.978;2023-04-09T08:28:06;9.50;77.50
25438;DHT22;13364;49.084;9.978;2023-04-09T08:30:34;9.70;78.50
25438;DHT22;13364;49.084;9.978;2023-04-09T08:33:01;9.90;78.10
25438;DHT22;13364;49.084;9.978;2023-04-09T08:35:32;10.20;76.80
25438;DHT22;13364;49.084;9.978;2023-04-09T08:37:59;10.40;75.70
25438;DHT22;13364;49.084;9.978;2023-04-09T08:40:26;10.60;74.70
25438;DHT22;13364;49.084;9.978;2023-04-09T08:42:54;10.70;73.90
25438;DHT22;13364;49.084;9.978;2023-04-09T08:45:22;10.90;73.70
25438;DHT22;13364;49.084;9.978;2023-04-09T08:47:50;11.10;72.50
25438;DHT22;13364;49.084;9.978;2023-04-09T08:50:18;11.30;71.10
25438;DHT22;13364;49.084;9.978;2023-04-09T08:52:46;11.40;70.60
25438;DHT22;13364;49.084;9.978;2023-04-09T08:55:14;11.60;69.20
25438;DHT22;13364;49.084;9.978;2023-04-09T08:57:41;11.70;68.70
25438;DHT22;13364;49.084;9.978;2023-04-09T09:00:09;11.90;68.90
25438;DHT22;13364;49.084;9.978;2023-04-09T09:02:36;12.10;67.50
25438;DHT22;13364;49.084;9.978;2023-04-09T09:05:05;12.20;67.30
25438;DHT22;13364;49.084;9.978;2023-04-09T09:07:32;12.30;64.40
25438;DHT22;13364;49.084;9.978;2023-04-09T09:10:01;12.30;63.30
25438;DHT22;13364;49.084;9.978;2023-04-09T09:14:57;12.30;64.60
25438;DHT22;13364;49.084;9.978;2023-04-09T09:17:24;12.30;64.60
25438;DHT22;13364;49.084;9.978;2023-04-09T09:19:52;12.40;64.70
25438;DHT22;13364;49.084;9.978;2023-04-09T09:22:19;12.60;63.70
25438;DHT22;13364;49.084;9.978;2023-04-09T09:24:47;12.80;63.60
25438;DHT22;13364;49.084;9.978;2023-04-09T09:27:36;13.00;64.00
25438;DHT22;13364;49.084;9.978;2023-04-09T09:30:06;13.30;63.00
25438;DHT22;13364;49.084;9.978;2023-04-09T09:32:34;13.40;62.90
25438;DHT22;13364;49.084;9.978;2023-04-09T09:35:06;13.70;59.40
25438;DHT22;13364;49.084;9.978;2023-04-09T09:37:33;13.60;58.30
25438;DHT22;13364;49.084;9.978;2023-04-09T09:40:00;13.50;58.90
25438;DHT22;13364;49.084;9.978;2023-04-09T09:42:27;13.50;59.40
25438;DHT22;13364;49.084;9.978;2023-04-09T09:44:55;13.70;58.40
25438;DHT22;13364;49.084;9.978;2023-04-09T09:47:22;13.60;56.50
25438;DHT22;13364;49.084;9.978;2023-04-09T09:49:51;13.50;57.50
25438;DHT22;13364;49.084;9.978;2023-04-09T09:52:24;13.60;57.00
25438;DHT22;13364;49.084;9.978;2023-04-09T09:54:54;13.80;56.80
25438;DHT22;13364;49.084;9.978;2023-04-09T09:57:22;14.00;54.30
25438;DHT22;13364;49.084;9.978;2023-04-09T10:00:02;14.10;56.70
25438;DHT22;13364;49.084;9.978;2023-04-09T10:02:51;14.30;57.80
25438;DHT22;13364;49.084;9.978;2023-04-09T10:05:20;14.60;53.90
25438;DHT22;13364;49.084;9.978;2023-04-09T10:07:54;14.60;52.70
25438;DHT22;13364;49.084;9.978;2023-04-09T10:10:23;14.40;52.20
25438;DHT22;13364;49.084;9.978;2023-04-09T10:12:51;14.30;53.10
25438;DHT22;13364;49.084;9.978;2023-04-09T10:15:18;14.30;52.20
25438;DHT22;13364;49.084;9.978;2023-04-09T10:17:46;14.50;53.20
25438;DHT22;13364;49.084;9.978;2023-04-09T10:20:26;14.60;53.00
25438;DHT22;13364;49.084;9.978;2023-04-09T10:22:55;14.70;52.80
25438;DHT22;13364;49.084;9.978;2023-04-09T10:25:23;14.70;51.30
25438;DHT22;13364;49.084;9.978;2023-04-09T10:28:00;14.70;53.30
25438;DHT22;13364;49.084;9.978;2023-04-09T10:30:32;14.80;52.30
25438;DHT22;13364;49.084;9.978;2023-04-09T10:33:10;15.00;52.10
25438;DHT22;13364;49.084;9.978;2023-04-09T10:35:37;15.10;52.20
25438;DHT22;13364;49.084;9.978;2023-04-09T10:38:09;15.10;51.20
25438;DHT22;13364;49.084;9.978;2023-04-09T10:40:54;15.20;51.10
25438;DHT22;13364;49.084;9.978;2023-04-09T10:43:22;15.20;50.40
25438;DHT22;13364;49.084;9.978;2023-04-09T10:45:49;15.00;49.50
25438;DHT22;13364;49.084;9.978;2023-04-09T10:48:19;14.80;50.30
25438;DHT22;13364;49.084;9.978;2023-04-09T10:50:49;14.80;50.80
25438;DHT22;13364;49.084;9.978;2023-04-09T10:53:25;14.90;51.10
25438;DHT22;13364;49.084;9.978;2023-04-09T10:55:55;14.90;50.30
25438;DHT22;13364;49.084;9.978;2023-04-09T10:58:22;14.80;51.30
25438;DHT22;13364;49.084;9.978;2023-04-09T11:00:50;14.80;50.30
25438;DHT22;13364;49.084;9.978;2023-04-09T11:03:27;14.50;50.50
25438;DHT22;13364;49.084;9.978;2023-04-09T11:06:01;14.40;51.90
25438;DHT22;13364;49.084;9.978;2023-04-09T11:08:30;14.40;52.10
25438;DHT22;13364;49.084;9.978;2023-04-09T11:10:58;14.40;50.50
25438;DHT22;13364;49.084;9.978;2023-04-09T11:13:28;14.20;50.90
25438;DHT22;13364;49.084;9.978;2023-04-09T11:15:55;14.30;52.00
25438;DHT22;13364;49.084;9.978;2023-04-09T11:18:24;14.40;50.00
25438;DHT22;13364;49.084;9.978;2023-04-09T11:20:59;14.20;50.30
25438;DHT22;13364;49.084;9.978;2023-04-09T11:23:27;14.30;51.30
25438;DHT22;13364;49.084;9.978;2023-04-09T11:25:54;14.30;50.30
25438;DHT22;13364;49.084;9.978;2023-04-09T11:28:23;14.40;50.30
25438;DHT22;13364;49.084;9.978;2023-04-09T11:30:50;14.60;52.60
25438;DHT22;13364;49.084;9.978;2023-04-09T11:33:18;14.80;51.70
25438;DHT22;13364;49.084;9.978;2023-04-09T11:35:47;14.80;52.30
25438;DHT22;13364;49.084;9.978;2023-04-09T11:38:14;15.00;50.70
25438;DHT22;13364;49.084;9.978;2023-04-09T11:40:43;15.10;52.40
25438;DHT22;13364;49.084;9.978;2023-04-09T11:43:15;15.20;50.40
25438;DHT22;13364;49.084;9.978;2023-04-09T11:45:43;15.20;51.50
25438;DHT22;13364;49.084;9.978;2023-04-09T11:48:15;15.30;50.90
25438;DHT22;13364;49.084;9.978;2023-04-09T11:50:49;15.40;51.60
25438;DHT22;13364;49.084;9.978;2023-04-09T11:53:43;15.40;50.50
25438;DHT22;13364;49.084;9.978;2023-04-09T11:56:11;15.50;50.40
25438;DHT22;13364;49.084;9.978;2023-04-09T11:58:44;15.40;49.90
25438;DHT22;13364;49.084;9.978;2023-04-09T12:01:13;15.30;50.50
25438;DHT22;13364;49.084;9.978;2023-04-09T12:03:41;15.10;50.80
25438;DHT22;13364;49.084;9.978;2023-04-09T12:06:08;14.90;49.80
25438;DHT22;13364;49.084;9.978;2023-04-09T12:08:36;14.70;51.50
25438;DHT22;13364;49.084;9.978;2023-04-09T12:11:14;14.60;51.40
25438;DHT22;13364;49.084;9.978;2023-04-09T12:13:42;14.60;51.50
25438;DHT22;13364;49.084;9.978;2023-04-09T12:16:11;14.60;51.40
25438;DHT22;13364;49.084;9.978;2023-04-09T12:18:39;14.70;51.90
25438;DHT22;13364;49.084;9.978;2023-04-09T12:21:06;14.70;51.10
25438;DHT22;13364;49.084;9.978;2023-04-09T12:23:33;14.80;52.00
25438;DHT22;13364;49.084;9.978;2023-04-09T12:26:01;15.00;52.50
25438;DHT22;13364;49.084;9.978;2023-04-09T12:28:28;15.10;51.00
25438;DHT22;13364;49.084;9.978;2023-04-09T12:30:55;15.10;51.30
25438;DHT22;13364;49.084;9.978;2023-04-09T12:33:24;15.10;51.30
25438;DHT22;13364;49.084;9.978;2023-04-09T12:35:51;15.20;51.10
25438;DHT22;13364;49.084;9.978;2023-04-09T12:38:18;15.40;52.40
25438;DHT22;13364;49.084;9.978;2023-04-09T12:40:45;15.70;50.10
25438;DHT22;13364;49.084;9.978;2023-04-09T12:46:19;15.80;49.80
25438;DHT22;13364;49.084;9.978;2023-04-09T12:48:46;15.80;50.00
25438;DHT22;13364;49.084;9.978;2023-04-09T12:51:40;15.80;49.60
25438;DHT22;13364;49.084;9.978;2023-04-09T12:54:07;15.90;50.60
25438;DHT22;13364;49.084;9.978;2023-04-09T12:56:34;16.00;50.20
25438;DHT22;13364;49.084;9.978;2023-04-09T12:59:01;15.90;48.50
25438;DHT22;13364;49.084;9.978;2023-04-09T13:01:29;15.80;49.40
25438;DHT22;13364;49.084;9.978;2023-04-09T13:03:56;15.60;50.00
25438;DHT22;13364;49.084;9.978;2023-04-09T13:06:24;15.60;50.40
25438;DHT22;13364;49.084;9.978;2023-04-09T13:08:57;15.50;51.10
25438;DHT22;13364;49.084;9.978;2023-04-09T13:11:24;15.50;51.60
25438;DHT22;13364;49.084;9.978;2023-04-09T13:13:52;15.60;51.70
25438;DHT22;13364;49.084;9.978;2023-04-09T13:16:19;15.70;52.60
25438;DHT22;13364;49.084;9.978;2023-04-09T13:18:46;15.70;51.50
25438;DHT22;13364;49.084;9.978;2023-04-09T13:21:13;15.80;50.10
25438;DHT22;13364;49.084;9.978;2023-04-09T13:23:44;15.70;49.90
25438;DHT22;13364;49.084;9.978;2023-04-09T13:26:11;15.60;51.10
25438;DHT22;13364;49.084;9.978;2023-04-09T13:28:38;15.80;50.80
25438;DHT22;13364;49.084;9.978;2023-04-09T13:31:05;16.10;50.90
25438;DHT22;13364;49.084;9.978;2023-04-09T13:33:32;16.40;49.90
25438;DHT22;13364;49.084;9.978;2023-04-09T13:35:59;16.30;49.00
25438;DHT22;13364;49.084;9.978;2023-04-09T13:38:27;16.00;50.60
25438;DHT22;13364;49.084;9.978;2023-04-09T13:41:21;15.90;50.40
25438;DHT22;13364;49.084;9.978;2023-04-09T13:43:54;15.90;49.80
25438;DHT22;13364;49.084;9.978;2023-04-09T13:53:13;15.70;49.60
25438;DHT22;13364;49.084;9.978;2023-04-09T13:55:40;15.60;47.80
25438;DHT22;13364;49.084;9.978;2023-04-09T13:58:07;15.50;48.90
25438;DHT22;13364;49.084;9.978;2023-04-09T14:00:38;15.50;48.90
25438;DHT22;13364;49.084;9.978;2023-04-09T14:03:05;15.40;49.20
25438;DHT22;13364;49.084;9.978;2023-04-09T14:05:32;15.50;50.20
25438;DHT22;13364;49.084;9.978;2023-04-09T14:07:59;15.70;49.90
25438;DHT22;13364;49.084;9.978;2023-04-09T14:10:26;15.80;48.80
25438;DHT22;13364;49.084;9.978;2023-04-09T14:12:58;15.90;47.60
25438;DHT22;13364;49.084;9.978;2023-04-09T14:15:25;15.90;46.20
25438;DHT22;13364;49.084;9.978;2023-04-09T14:17:52;15.90;46.80
25438;DHT22;13364;49.084;9.978;2023-04-09T14:20:19;15.90;46.70
25438;DHT22;13364;49.084;9.978;2023-04-09T14:22:52;16.00;47.50
25438;DHT22;13364;49.084;9.978;2023-04-09T14:25:23;16.20;48.20
25438;DHT22;13364;49.084;9.978;2023-04-09T14:27:50;16.30;47.90
25438;DHT22;13364;49.084;9.978;2023-04-09T14:30:17;16.20;48.60
25438;DHT22;13364;49.084;9.978;2023-04-09T14:32:45;16.20;48.40
25438;DHT22;13364;49.084;9.978;2023-04-09T14:35:12;16.10;48.80
25438;DHT22;13364;49.084;9.978;2023-04-09T14:37:39;16.00;48.40
25438;DHT22;13364;49.084;9.978;2023-04-09T14:40:07;15.90;48.30
25438;DHT22;13364;49.084;9.978;2023-04-09T14:42:36;15.80;48.90
25438;DHT22;13364;49.084;9.978;2023-04-09T14:45:03;15.80;48.90
25438;DHT22;13364;49.084;9.978;2023-04-09T14:47:30;15.80;49.60
25438;DHT22;13364;49.084;9.978;2023-04-09T14:49:57;15.80;48.70
25438;DHT22;13364;49.084;9.978;2023-04-09T14:52:24;15.70;48.30
25438;DHT22;13364;49.084;9.978;2023-04-09T14:54:51;15.60;48.10
25438;DHT22;13364;49.084;9.978;2023-04-09T14:57:18;15.50;48.00
25438;DHT22;13364;49.084;9.978;2023-04-09T14:59:45;15.60;48.60
25438;DHT22;13364;49.084;9.978;2023-04-09T15:02:12;15.60;48.70
25438;DHT22;13364;49.084;9.978;2023-04-09T15:04:40;15.60;47.60
25438;DHT22;13364;49.084;9.978;2023-04-09T15:07:07;15.40;49.10
25438;DHT22;13364;49.084;9.978;2023-04-09T15:09:34;15.50;49.10
25438;DHT22;13364;49.084;9.978;2023-04-09T15:12:01;15.50;49.10
25438;DHT22;13364;49.084;9.978;2023-04-09T15:14:29;15.60;48.80
25438;DHT22;13364;49.084;9.978;2023-04-09T15:16:57;15.60;48.80
25438;DHT22;13364;49.084;9.978;2023-04-09T15:19:23;15.60;49.10
25438;DHT22;13364;49.084;9.978;2023-04-09T15:21:51;15.60;48.70
25438;DHT22;13364;49.084;9.978;2023-04-09T15:24:18;15.60;48.60
25438;DHT22;13364;49.084;9.978;2023-04-09T15:26:45;15.40;48.00
25438;DHT22;13364;49.084;9.978;2023-04-09T15:29:12;15.30;48.50
25438;DHT22;13364;49.084;9.978;2023-04-09T15:31:39;15.00;49.20
25438;DHT22;13364;49.084;9.978;2023-04-09T15:34:07;15.00;50.20
25438;DHT22;13364;49.084;9.978;2023-04-09T15:36:34;15.00;49.00
25438;DHT22;13364;49.084;9.978;2023-04-09T15:39:02;14.90;49.20
25438;DHT22;13364;49.084;9.978;2023-04-09T15:41:30;14.90;50.40
25438;DHT22;13364;49.084;9.978;2023-04-09T15:43:58;14.90;50.10
25438;DHT22;13364;49.084;9.978;2023-04-09T15:46:25;15.00;49.20
25438;DHT22;13364;49.084;9.978;2023-04-09T15:48:52;15.00;48.50
25438;DHT22;13364;49.084;9.978;2023-04-09T15:51:19;15.00;47.50
25438;DHT22;13364;49.084;9.978;2023-04-09T15:53:46;15.10;48.70
25438;DHT22;13364;49.084;9.978;2023-04-09T15:56:13;15.20;47.50
25438;DHT22;13364;49.084;9.978;2023-04-09T15:58:43;15.20;48.90
25438;DHT22;13364;49.084;9.978;2023-04-09T16:01:36;15.30;49.30
25438;DHT22;13364;49.084;9.978;2023-04-09T16:04:03;15.50;49.70
25438;DHT22;13364;49.084;9.978;2023-04-09T16:06:31;15.60;48.40
25438;DHT22;13364;49.084;9.978;2023-04-09T16:08:58;15.60;48.10
25438;DHT22;13364;49.084;9.978;2023-04-09T16:12:01;15.50;48.00
25438;DHT22;13364;49.084;9.978;2023-04-09T16:14:28;15.40;48.40
25438;DHT22;13364;49.084;9.978;2023-04-09T16:16:55;15.40;49.20